Time;durP1;ratioP1;P1;durP2;ratioP2;P2;SDS_P1;SDS_P2;PMS_P1;PMS_P2;Temp;Humidity;BMP_temperature;BMP_pressure;BME280_temperature;BME280_humidity;BME280_pressure;Samples;Min_cycle;Max_cycle;Signal;HPM_P1;HPM_P2
2023/02/10 00:01:18;;;;;;;;;;;1.30;88.90;;;;;;4993279;28;19922;-79
2023/02/10 00:03:44;;;;;;;;;;;1.20;89.20;;;;;;4994838;28;20273;-79
2023/02/10 00:06:10;;;;;;;;;;;1.10;89.50;;;;;;4995768;28;19917;-79
2023/02/10 00:08:36;;;;;;;;;;;1.20;89.40;;;;;;4992805;28;20776;-79
2023/02/10 00:11:03;;;;;;;;;;;1.20;89.60;;;;;;5002040;28;19921;-79
2023/02/10 00:13:29;;;;;;;;;;;1.20;89.60;;;;;;4999285;28;19926;-79
2023/02/10 00:15:57;;;;;;;;;;;1.20;89.80;;;;;;4994432;28;19916;-79
2023/02/10 00:18:22;;;;;;;;;;;1.20;89.70;;;;;;4999548;28;19999;-78
2023/02/10 00:20:48;;;;;;;;;;;1.10;90.00;;;;;;4996278;28;19913;-79
2023/02/10 00:23:14;;;;;;;;;;;1.10;90.10;;;;;;4995321;28;20004;-78
2023/02/10 00:25:39;;;;;;;;;;;1.10;90.10;;;;;;5002311;28;19922;-78
2023/02/10 00:28:05;;;;;;;;;;;1.00;90.20;;;;;;4994076;28;19921;-78
2023/02/10 00:30:30;;;;;;;;;;;0.90;90.40;;;;;;5000692;28;19913;-78
2023/02/10 00:32:56;;;;;;;;;;;0.90;90.50;;;;;;4997925;28;20711;-78
2023/02/10 00:35:22;;;;;;;;;;;0.80;90.60;;;;;;4993743;28;19920;-78
2023/02/10 00:37:48;;;;;;;;;;;0.80;90.60;;;;;;4999580;28;19988;-78
2023/02/10 00:40:13;;;;;;;;;;;0.80;90.70;;;;;;4998335;28;19918;-78
2023/02/10 00:42:39;;;;;;;;;;;0.70;90.90;;;;;;4997614;28;19914;-78
2023/02/10 00:45:05;;;;;;;;;;;0.60;91.00;;;;;;5000328;28;20021;-78
2023/02/10 00:47:30;;;;;;;;;;;0.60;91.10;;;;;;5000191;28;20611;-78
2023/02/10 00:49:56;;;;;;;;;;;0.50;91.30;;;;;;4998658;28;20586;-78
2023/02/10 00:52:22;;;;;;;;;;;0.50;91.40;;;;;;4997534;28;19921;-78
2023/02/10 00:54:48;;;;;;;;;;;0.50;91.40;;;;;;4996971;28;19943;-78
2023/02/10 00:57:14;;;;;;;;;;;0.60;91.40;;;;;;4996560;28;20444;-78
2023/02/10 00:59:39;;;;;;;;;;;0.70;91.30;;;;;;4991128;28;20021;-78
2023/02/10 01:02:05;;;;;;;;;;;0.70;91.60;;;;;;4993548;28;19921;-78
2023/02/10 01:04:31;;;;;;;;;;;0.70;91.20;;;;;;4997316;28;19925;-78
2023/02/10 01:06:56;;;;;;;;;;;0.80;91.20;;;;;;4999048;28;20468;-78
2023/02/10 01:09:22;;;;;;;;;;;0.60;91.40;;;;;;4995799;28;19948;-78
2023/02/10 01:11:47;;;;;;;;;;;0.70;91.50;;;;;;4997551;28;20462;-79
2023/02/10 01:14:13;;;;;;;;;;;0.80;91.30;;;;;;4992950;28;19917;-78
2023/02/10 01:16:39;;;;;;;;;;;0.70;91.40;;;;;;4995057;28;19925;-78
2023/02/10 01:19:04;;;;;;;;;;;0.70;91.40;;;;;;4990308;28;19913;-79
2023/02/10 01:21:31;;;;;;;;;;;0.60;91.50;;;;;;5001901;28;19920;-79
2023/02/10 01:23:56;;;;;;;;;;;0.70;91.50;;;;;;4999563;28;19964;-80
2023/02/10 01:26:22;;;;;;;;;;;0.90;91.10;;;;;;5000158;28;19932;-80
2023/02/10 01:28:47;;;;;;;;;;;0.80;91.50;;;;;;4996329;28;19914;-80
2023/02/10 01:31:14;;;;;;;;;;;0.70;91.50;;;;;;4996123;28;19924;-79
2023/02/10 01:33:41;;;;;;;;;;;0.80;91.40;;;;;;4992309;28;19917;-78
2023/02/10 01:36:08;;;;;;;;;;;0.60;91.60;;;;;;4993555;28;20766;-79
2023/02/10 01:38:34;;;;;;;;;;;0.60;91.70;;;;;;4999893;28;19917;-79
2023/02/10 01:40:59;;;;;;;;;;;0.70;91.60;;;;;;4996512;28;19968;-79
2023/02/10 01:43:25;;;;;;;;;;;0.60;91.70;;;;;;4990345;28;19921;-79
2023/02/10 01:45:51;;;;;;;;;;;0.70;91.60;;;;;;4993484;28;19956;-79
2023/02/10 01:48:17;;;;;;;;;;;0.50;91.70;;;;;;4991637;28;19913;-77
2023/02/10 01:50:47;;;;;;;;;;;0.50;91.90;;;;;;4995695;28;19951;-78
2023/02/10 01:53:14;;;;;;;;;;;0.50;92.10;;;;;;5002330;28;19924;-78
2023/02/10 01:55:41;;;;;;;;;;;0.50;92.00;;;;;;5003834;28;19913;-77
2023/02/10 01:58:08;;;;;;;;;;;0.30;92.10;;;;;;5000579;28;20821;-78
2023/02/10 02:00:34;;;;;;;;;;;0.30;92.40;;;;;;4995275;28;19990;-78
2023/02/10 02:03:00;;;;;;;;;;;0.00;92.80;;;;;;5000996;28;19909;-78
2023/02/10 02:05:40;;;;;;;;;;;0.10;92.80;;;;;;5000464;28;19917;-79
2023/02/10 02:08:08;;;;;;;;;;;0.10;92.70;;;;;;5003814;28;19925;-78
2023/02/10 02:10:38;;;;;;;;;;;0.10;93.00;;;;;;4989944;28;19913;-78
2023/02/10 02:13:06;;;;;;;;;;;0.10;92.90;;;;;;5004105;28;19917;-79
2023/02/10 02:15:51;;;;;;;;;;;0.00;93.00;;;;;;4989093;28;19953;-78
2023/02/10 02:18:20;;;;;;;;;;;0.10;93.10;;;;;;4995226;28;19914;-80
2023/02/10 02:20:59;;;;;;;;;;;0.10;93.00;;;;;;5000230;28;19948;-78
2023/02/10 02:23:34;;;;;;;;;;;0.00;93.10;;;;;;4995526;28;19913;-78
2023/02/10 02:26:02;;;;;;;;;;;0.00;93.40;;;;;;5001566;28;19922;-79
2023/02/10 02:28:36;;;;;;;;;;;0.00;93.20;;;;;;4997281;28;19917;-79
2023/02/10 02:31:21;;;;;;;;;;;-0.10;93.20;;;;;;4995711;28;20003;-79
2023/02/10 02:33:49;;;;;;;;;;;0.00;93.20;;;;;;4990216;28;19918;-78
2023/02/10 02:36:20;;;;;;;;;;;-0.10;93.20;;;;;;4990625;28;20392;-78
2023/02/10 02:38:46;;;;;;;;;;;-0.20;93.20;;;;;;4997691;28;20289;-79
2023/02/10 02:41:11;;;;;;;;;;;-0.20;93.40;;;;;;4991272;28;19909;-79
2023/02/10 02:43:38;;;;;;;;;;;-0.20;93.40;;;;;;4997207;28;19913;-78
2023/02/10 02:46:16;;;;;;;;;;;-0.10;93.40;;;;;;4989380;28;19979;-77
2023/02/10 02:48:41;;;;;;;;;;;0.00;93.40;;;;;;4994403;28;19963;-77
2023/02/10 02:51:19;;;;;;;;;;;-0.10;93.30;;;;;;4993764;28;20428;-78
2023/02/10 02:53:45;;;;;;;;;;;-0.10;93.40;;;;;;5000074;28;19921;-78
2023/02/10 02:56:10;;;;;;;;;;;-0.10;93.40;;;;;;4994708;28;19913;-77
2023/02/10 02:58:54;;;;;;;;;;;-0.20;93.50;;;;;;4997638;28;19975;-79
2023/02/10 03:01:25;;;;;;;;;;;-0.20;93.60;;;;;;4990524;28;19928;-78
2023/02/10 03:03:52;;;;;;;;;;;-0.10;93.60;;;;;;4977318;28;19920;-78
2023/02/10 03:06:18;;;;;;;;;;;-0.20;93.60;;;;;;4994446;28;19913;-79
2023/02/10 03:08:43;;;;;;;;;;;-0.20;93.60;;;;;;4999448;28;19971;-78
2023/02/10 03:11:09;;;;;;;;;;;-0.10;93.60;;;;;;4991267;28;19932;-79
2023/02/10 03:13:35;;;;;;;;;;;-0.20;93.70;;;;;;4969858;28;19975;-79
2023/02/10 03:16:00;;;;;;;;;;;-0.20;93.70;;;;;;4996724;28;19914;-78
2023/02/10 03:18:26;;;;;;;;;;;-0.20;93.70;;;;;;4993217;28;20564;-78
2023/02/10 03:20:51;;;;;;;;;;;-0.20;93.70;;;;;;4976211;28;20407;-79
2023/02/10 03:23:17;;;;;;;;;;;-0.10;93.60;;;;;;4999830;28;19920;-78
2023/02/10 03:25:45;;;;;;;;;;;-0.10;93.70;;;;;;4991071;28;19929;-78
2023/02/10 03:28:11;;;;;;;;;;;-0.20;93.70;;;;;;4997522;28;19971;-78
2023/02/10 03:30:37;;;;;;;;;;;-0.20;93.80;;;;;;4993701;28;20277;-79
2023/02/10 03:33:03;;;;;;;;;;;-0.20;93.70;;;;;;5000182;28;20377;-78
2023/02/10 03:35:29;;;;;;;;;;;-0.10;93.70;;;;;;4996385;28;19917;-78
2023/02/10 03:37:54;;;;;;;;;;;-0.30;93.90;;;;;;4977211;28;21391;-78
2023/02/10 03:40:20;;;;;;;;;;;-0.30;94.00;;;;;;4994569;28;20024;-78
2023/02/10 03:42:46;;;;;;;;;;;-0.30;93.90;;;;;;4994107;28;19914;-78
2023/02/10 03:45:11;;;;;;;;;;;-0.40;94.20;;;;;;4996269;28;19987;-78
2023/02/10 03:47:37;;;;;;;;;;;-0.40;94.30;;;;;;4989442;28;20349;-78
2023/02/10 03:50:02;;;;;;;;;;;-0.50;94.30;;;;;;4995751;28;19914;-78
2023/02/10 03:52:28;;;;;;;;;;;-0.40;94.40;;;;;;4992567;28;19917;-78
2023/02/10 03:54:54;;;;;;;;;;;-0.40;94.30;;;;;;4992110;28;19920;-78
2023/02/10 03:57:19;;;;;;;;;;;-0.40;94.30;;;;;;4985035;28;19988;-78
2023/02/10 03:59:45;;;;;;;;;;;-0.50;94.40;;;;;;4999815;28;19952;-77
2023/02/10 04:02:10;;;;;;;;;;;-0.60;94.70;;;;;;4943228;28;1185058;-78
2023/02/10 04:04:36;;;;;;;;;;;-0.50;94.50;;;;;;4986406;28;19924;-77
2023/02/10 04:07:02;;;;;;;;;;;-0.50;94.60;;;;;;4990690;28;19918;-78
2023/02/10 04:09:28;;;;;;;;;;;-0.60;94.70;;;;;;4997667;28;19957;-79
2023/02/10 04:11:54;;;;;;;;;;;-0.60;94.70;;;;;;4974733;28;19925;-79
2023/02/10 04:14:20;;;;;;;;;;;-0.70;94.80;;;;;;4999820;28;19913;-78
2023/02/10 04:16:45;;;;;;;;;;;-0.70;95.00;;;;;;4989254;28;19913;-78
2023/02/10 04:19:11;;;;;;;;;;;-0.70;95.00;;;;;;4998339;28;19932;-79
2023/02/10 04:21:36;;;;;;;;;;;-0.60;95.00;;;;;;5000848;28;19916;-78
2023/02/10 04:24:02;;;;;;;;;;;-0.60;94.90;;;;;;4993625;28;19913;-79
2023/02/10 04:26:27;;;;;;;;;;;-0.60;95.00;;;;;;5000632;28;19917;-79
2023/02/10 04:28:53;;;;;;;;;;;-0.80;95.10;;;;;;4999434;28;19948;-78
2023/02/10 04:31:19;;;;;;;;;;;-0.80;95.30;;;;;;4992777;28;19921;-79
2023/02/10 04:33:44;;;;;;;;;;;-0.90;95.40;;;;;;4993834;28;19921;-78
2023/02/10 04:36:10;;;;;;;;;;;-0.90;95.50;;;;;;4975487;28;20703;-78
2023/02/10 04:38:35;;;;;;;;;;;-0.90;95.50;;;;;;4989903;28;19941;-78
2023/02/10 04:41:02;;;;;;;;;;;-0.90;95.60;;;;;;4997450;28;19924;-79
2023/02/10 04:43:28;;;;;;;;;;;-1.00;95.90;;;;;;4995159;28;20195;-78
2023/02/10 04:45:54;;;;;;;;;;;-1.10;95.80;;;;;;4998730;28;20364;-78
2023/02/10 04:48:20;;;;;;;;;;;-1.00;95.80;;;;;;4993223;28;19957;-78
2023/02/10 04:50:46;;;;;;;;;;;-1.10;95.90;;;;;;4992062;28;19917;-78
2023/02/10 04:53:12;;;;;;;;;;;-1.10;96.00;;;;;;4979931;28;20297;-79
2023/02/10 04:55:38;;;;;;;;;;;-1.20;96.20;;;;;;5000335;28;19913;-78
2023/02/10 04:58:03;;;;;;;;;;;-1.00;96.10;;;;;;5000876;28;20031;-78
2023/02/10 05:00:29;;;;;;;;;;;-1.20;96.20;;;;;;4999727;28;20008;-79
2023/02/10 05:02:54;;;;;;;;;;;-1.20;96.30;;;;;;4996530;28;19984;-78
2023/02/10 05:05:20;;;;;;;;;;;-1.30;96.70;;;;;;5001002;28;19914;-78
2023/02/10 05:07:46;;;;;;;;;;;-1.40;96.90;;;;;;4989319;28;20463;-79
2023/02/10 05:10:11;;;;;;;;;;;-1.30;96.90;;;;;;4994738;28;19917;-78
2023/02/10 05:12:40;;;;;;;;;;;-1.30;96.80;;;;;;5002912;28;19924;-80
2023/02/10 05:15:07;;;;;;;;;;;-1.40;97.00;;;;;;4996483;28;19917;-80
2023/02/10 05:17:33;;;;;;;;;;;-1.40;97.10;;;;;;4999762;28;19920;-78
2023/02/10 05:19:59;;;;;;;;;;;-1.40;97.10;;;;;;4998038;28;19913;-79
2023/02/10 05:22:29;;;;;;;;;;;-1.50;97.30;;;;;;4994804;28;19913;-78
2023/02/10 05:24:56;;;;;;;;;;;-1.50;97.40;;;;;;4991477;28;19917;-78
2023/02/10 05:27:23;;;;;;;;;;;-1.60;97.50;;;;;;4994191;28;20456;-78
2023/02/10 05:29:48;;;;;;;;;;;-1.50;97.60;;;;;;5000356;28;19989;-79
2023/02/10 05:32:14;;;;;;;;;;;-1.60;97.60;;;;;;4995220;28;19937;-79
2023/02/10 05:34:39;;;;;;;;;;;-1.50;97.70;;;;;;4998038;28;19928;-78
2023/02/10 05:37:05;;;;;;;;;;;-1.40;97.60;;;;;;4999113;28;19914;-78
2023/02/10 05:39:31;;;;;;;;;;;-1.50;97.80;;;;;;5000274;28;19920;-79
2023/02/10 05:41:57;;;;;;;;;;;-1.60;97.70;;;;;;4998340;28;19969;-78
2023/02/10 05:44:23;;;;;;;;;;;-1.60;97.80;;;;;;5001850;28;19914;-79
2023/02/10 05:46:49;;;;;;;;;;;-1.50;97.90;;;;;;4999025;28;19913;-79
2023/02/10 05:49:15;;;;;;;;;;;-1.60;98.00;;;;;;4986827;28;19990;-79
2023/02/10 05:51:41;;;;;;;;;;;-1.60;98.10;;;;;;4989916;28;19916;-79
2023/02/10 05:54:06;;;;;;;;;;;-1.60;98.20;;;;;;4993035;28;20094;-80
2023/02/10 05:56:32;;;;;;;;;;;-1.60;98.20;;;;;;4998669;28;19917;-80
2023/02/10 05:58:57;;;;;;;;;;;-1.60;98.30;;;;;;4990721;28;19914;-80
2023/02/10 06:01:23;;;;;;;;;;;-1.70;98.40;;;;;;4990610;28;19921;-79
2023/02/10 06:03:49;;;;;;;;;;;-1.70;98.40;;;;;;4995445;28;19987;-80
2023/02/10 06:06:14;;;;;;;;;;;-1.70;98.70;;;;;;4995573;28;20687;-80
2023/02/10 06:08:40;;;;;;;;;;;-1.80;98.70;;;;;;4994269;28;19963;-80
2023/02/10 06:11:06;;;;;;;;;;;-1.80;98.90;;;;;;4983362;28;19918;-80
2023/02/10 06:13:31;;;;;;;;;;;-1.80;98.80;;;;;;4992625;28;19918;-79
2023/02/10 06:15:57;;;;;;;;;;;-1.90;98.90;;;;;;4999332;28;20016;-79
2023/02/10 06:18:22;;;;;;;;;;;-1.90;99.10;;;;;;4995759;28;19913;-79
2023/02/10 06:20:50;;;;;;;;;;;-1.90;99.20;;;;;;4998614;28;19914;-79
2023/02/10 06:23:16;;;;;;;;;;;-1.90;99.20;;;;;;5001702;28;20272;-77
2023/02/10 06:25:42;;;;;;;;;;;-1.90;99.20;;;;;;4998638;28;20012;-79
2023/02/10 06:28:08;;;;;;;;;;;-1.90;99.30;;;;;;4997983;28;20055;-80
2023/02/10 06:30:34;;;;;;;;;;;-1.90;99.40;;;;;;5000648;28;20714;-78
2023/02/10 06:32:59;;;;;;;;;;;-1.90;99.60;;;;;;4998243;28;19952;-78
2023/02/10 06:35:25;;;;;;;;;;;-2.00;99.60;;;;;;4996161;28;19913;-79
2023/02/10 06:37:50;;;;;;;;;;;-1.90;99.60;;;;;;4996932;28;20039;-79
2023/02/10 06:40:16;;;;;;;;;;;-1.90;99.60;;;;;;4996378;28;19917;-81
2023/02/10 06:42:42;;;;;;;;;;;-2.00;99.70;;;;;;4998906;28;19917;-80
2023/02/10 06:45:08;;;;;;;;;;;-1.90;99.80;;;;;;4999722;28;20393;-80
2023/02/10 06:47:34;;;;;;;;;;;-1.90;99.80;;;;;;4995818;28;19914;-81
2023/02/10 06:50:00;;;;;;;;;;;-1.90;99.80;;;;;;4994404;28;19917;-79
2023/02/10 06:52:26;;;;;;;;;;;-1.90;99.80;;;;;;4990284;28;19924;-79
2023/02/10 06:54:52;;;;;;;;;;;-2.00;99.80;;;;;;4994385;28;19924;-83
2023/02/10 06:57:18;;;;;;;;;;;-2.00;99.90;;;;;;4997400;28;19914;-80
2023/02/10 06:59:43;;;;;;;;;;;-1.90;99.90;;;;;;5001161;28;19913;-79
2023/02/10 07:02:12;;;;;;;;;;;-2.00;99.90;;;;;;4997925;28;19971;-81
2023/02/10 07:04:38;;;;;;;;;;;-2.00;99.90;;;;;;4996165;28;19914;-79
2023/02/10 07:07:04;;;;;;;;;;;-2.00;99.90;;;;;;4993676;28;19920;-80
2023/02/10 07:09:29;;;;;;;;;;;-1.90;99.90;;;;;;4990512;28;19918;-80
2023/02/10 07:11:55;;;;;;;;;;;-1.90;99.90;;;;;;4991819;28;19992;-79
2023/02/10 07:14:20;;;;;;;;;;;-1.90;99.90;;;;;;5001239;28;19917;-79
2023/02/10 07:16:47;;;;;;;;;;;-1.90;99.90;;;;;;5000044;28;19989;-78
2023/02/10 07:19:12;;;;;;;;;;;-1.90;99.90;;;;;;4999902;28;20675;-78
2023/02/10 07:21:38;;;;;;;;;;;-1.80;99.90;;;;;;4999173;28;19949;-79
2023/02/10 07:24:04;;;;;;;;;;;-1.70;99.70;;;;;;4991666;28;19945;-78
2023/02/10 07:26:30;;;;;;;;;;;-1.80;99.70;;;;;;4997651;28;20090;-79
2023/02/10 07:28:55;;;;;;;;;;;-1.20;98.80;;;;;;4997399;28;19968;-77
2023/02/10 07:31:21;;;;;;;;;;;-0.60;96.80;;;;;;4982596;28;19963;-76
2023/02/10 07:33:47;;;;;;;;;;;-0.20;95.80;;;;;;4988302;28;19917;-75
2023/02/10 07:36:12;;;;;;;;;;;0.00;95.30;;;;;;5001136;28;20486;-76
2023/02/10 07:38:38;;;;;;;;;;;0.10;95.00;;;;;;5000677;28;19917;-75
2023/02/10 07:41:04;;;;;;;;;;;0.30;94.50;;;;;;4993545;28;19913;-76
2023/02/10 07:43:30;;;;;;;;;;;0.50;94.00;;;;;;4994343;28;20390;-75
2023/02/10 07:45:55;;;;;;;;;;;0.70;93.60;;;;;;4999063;28;19944;-75
2023/02/10 07:48:21;;;;;;;;;;;0.80;93.20;;;;;;4998402;28;19949;-75
2023/02/10 07:50:47;;;;;;;;;;;0.80;93.10;;;;;;4992301;28;19913;-76
2023/02/10 07:53:12;;;;;;;;;;;1.00;92.80;;;;;;4994910;28;19921;-76
2023/02/10 07:55:38;;;;;;;;;;;1.20;92.50;;;;;;4996799;28;19910;-75
2023/02/10 07:58:04;;;;;;;;;;;1.30;92.10;;;;;;5002656;28;19917;-76
2023/02/10 08:00:30;;;;;;;;;;;1.40;91.80;;;;;;5002308;28;20792;-75
2023/02/10 08:02:55;;;;;;;;;;;1.60;91.50;;;;;;4985935;28;19910;-76
2023/02/10 08:05:21;;;;;;;;;;;1.70;91.20;;;;;;4983539;28;20520;-76
2023/02/10 08:07:47;;;;;;;;;;;1.90;91.10;;;;;;4987169;28;19909;-76
2023/02/10 08:10:13;;;;;;;;;;;2.10;90.80;;;;;;5001839;28;19916;-75
2023/02/10 08:12:38;;;;;;;;;;;2.30;90.20;;;;;;4997612;28;19926;-75
2023/02/10 08:15:05;;;;;;;;;;;2.30;90.20;;;;;;4992399;28;19909;-76
2023/02/10 08:17:30;;;;;;;;;;;2.40;90.30;;;;;;4997906;28;19910;-75
2023/02/10 08:19:56;;;;;;;;;;;2.40;89.80;;;;;;4994658;28;19916;-76
2023/02/10 08:22:21;;;;;;;;;;;2.60;89.90;;;;;;4997660;28;19914;-76
2023/02/10 08:24:47;;;;;;;;;;;2.70;89.80;;;;;;4994644;28;19984;-76
2023/02/10 08:27:12;;;;;;;;;;;2.80;89.00;;;;;;4999315;28;19917;-76
2023/02/10 08:29:38;;;;;;;;;;;2.80;89.00;;;;;;4987618;28;19909;-76
2023/02/10 08:32:04;;;;;;;;;;;2.90;89.50;;;;;;5000985;28;20008;-76
2023/02/10 08:34:29;;;;;;;;;;;3.00;88.90;;;;;;4995257;28;19964;-76
2023/02/10 08:36:55;;;;;;;;;;;3.00;87.90;;;;;;5004075;28;19909;-76
2023/02/10 08:39:21;;;;;;;;;;;3.10;88.50;;;;;;5005225;28;20024;-75
2023/02/10 08:41:47;;;;;;;;;;;3.10;88.30;;;;;;4972729;28;20044;-76
2023/02/10 08:44:13;;;;;;;;;;;3.20;88.40;;;;;;4992407;28;20618;-76
2023/02/10 08:46:38;;;;;;;;;;;3.40;88.10;;;;;;5001066;28;19909;-76
2023/02/10 08:49:04;;;;;;;;;;;3.50;86.90;;;;;;4987529;28;20318;-76
2023/02/10 08:51:32;;;;;;;;;;;3.50;86.30;;;;;;4991848;28;19924;-76
2023/02/10 08:53:59;;;;;;;;;;;3.40;87.20;;;;;;4989543;28;19913;-75
2023/02/10 08:56:24;;;;;;;;;;;3.50;87.60;;;;;;4987673;28;19910;-76
2023/02/10 08:58:50;;;;;;;;;;;3.60;86.20;;;;;;4969615;28;19932;-76
2023/02/10 09:01:20;;;;;;;;;;;3.70;86.80;;;;;;5004860;28;19925;-75
2023/02/10 09:03:46;;;;;;;;;;;3.70;86.50;;;;;;5004590;28;19916;-76
2023/02/10 09:06:12;;;;;;;;;;;3.90;86.90;;;;;;5004342;28;19913;-76
2023/02/10 09:08:38;;;;;;;;;;;4.10;87.60;;;;;;5001072;28;19909;-76
2023/02/10 09:11:05;;;;;;;;;;;4.00;86.80;;;;;;4989411;28;19920;-76
2023/02/10 09:13:30;;;;;;;;;;;4.10;85.90;;;;;;5003800;28;19913;-76
2023/02/10 09:15:56;;;;;;;;;;;4.20;86.00;;;;;;4986682;28;19990;-76
2023/02/10 09:18:21;;;;;;;;;;;4.50;86.20;;;;;;4993152;28;19955;-76
2023/02/10 09:20:47;;;;;;;;;;;4.40;85.20;;;;;;5003127;28;19909;-76
2023/02/10 09:23:13;;;;;;;;;;;4.40;85.20;;;;;;5004719;28;19960;-76
2023/02/10 09:25:38;;;;;;;;;;;4.50;85.20;;;;;;4980310;28;19979;-75
2023/02/10 09:28:04;;;;;;;;;;;4.70;84.90;;;;;;4986026;28;20540;-76
2023/02/10 09:30:30;;;;;;;;;;;4.80;83.00;;;;;;4996463;28;19914;-76
2023/02/10 09:32:55;;;;;;;;;;;5.20;84.50;;;;;;5000433;28;19960;-76
2023/02/10 09:35:21;;;;;;;;;;;5.10;83.40;;;;;;4994469;28;19910;-76
2023/02/10 09:37:47;;;;;;;;;;;5.10;84.40;;;;;;4998181;28;19916;-76
2023/02/10 09:40:16;;;;;;;;;;;5.00;83.30;;;;;;4988241;28;19910;-75
2023/02/10 09:42:44;;;;;;;;;;;4.90;83.10;;;;;;5004062;28;20388;-75
2023/02/10 09:45:13;;;;;;;;;;;4.60;81.70;;;;;;4992619;28;19917;-76
2023/02/10 09:47:42;;;;;;;;;;;4.70;83.80;;;;;;5003182;28;19909;-76
2023/02/10 09:50:13;;;;;;;;;;;4.80;83.40;;;;;;4988212;28;20400;-75
2023/02/10 09:52:42;;;;;;;;;;;5.10;84.60;;;;;;4998938;28;19924;-76
2023/02/10 09:55:27;;;;;;;;;;;5.10;82.70;;;;;;4985482;28;19952;-76
2023/02/10 09:57:57;;;;;;;;;;;5.00;83.80;;;;;;4985991;28;19917;-75
2023/02/10 10:00:26;;;;;;;;;;;4.90;82.00;;;;;;4990984;28;19925;-75
2023/02/10 10:02:55;;;;;;;;;;;4.90;82.50;;;;;;4991639;28;20247;-75
2023/02/10 10:05:27;;;;;;;;;;;5.10;82.60;;;;;;4992206;28;19909;-75
2023/02/10 10:07:53;;;;;;;;;;;5.10;82.00;;;;;;4985509;28;19996;-76
2023/02/10 10:10:28;;;;;;;;;;;5.10;82.60;;;;;;4997934;28;19909;-76
2023/02/10 10:12:54;;;;;;;;;;;5.30;82.10;;;;;;5003133;28;19921;-76
2023/02/10 10:15:20;;;;;;;;;;;5.40;82.40;;;;;;4989790;28;19913;-75
2023/02/10 10:18:01;;;;;;;;;;;5.50;81.80;;;;;;4998029;28;19916;-75
2023/02/10 10:20:45;;;;;;;;;;;5.50;81.80;;;;;;5001636;28;20007;-76
2023/02/10 10:23:24;;;;;;;;;;;5.70;82.60;;;;;;4995492;28;20356;-76
2023/02/10 10:25:55;;;;;;;;;;;5.50;82.10;;;;;;4991915;28;19917;-76
2023/02/10 10:28:39;;;;;;;;;;;5.70;81.40;;;;;;5003570;28;19909;-75
2023/02/10 10:31:08;;;;;;;;;;;5.70;81.10;;;;;;4995120;28;20273;-76
2023/02/10 10:33:37;;;;;;;;;;;5.70;82.50;;;;;;5003493;28;19963;-75
2023/02/10 10:36:03;;;;;;;;;;;5.90;81.00;;;;;;4995705;28;19909;-76
2023/02/10 10:38:30;;;;;;;;;;;5.90;81.00;;;;;;4991037;28;19917;-76
2023/02/10 10:40:59;;;;;;;;;;;5.90;81.70;;;;;;4998704;28;19915;-76
2023/02/10 10:43:27;;;;;;;;;;;6.00;81.50;;;;;;4998141;28;20452;-76
2023/02/10 10:45:55;;;;;;;;;;;6.00;81.90;;;;;;4988804;28;20015;-76
2023/02/10 10:48:26;;;;;;;;;;;6.00;81.20;;;;;;4987814;28;19910;-76
2023/02/10 10:50:55;;;;;;;;;;;6.20;81.90;;;;;;4991179;28;20301;-76
2023/02/10 10:53:26;;;;;;;;;;;6.00;81.20;;;;;;4992414;28;19913;-75
2023/02/10 10:55:54;;;;;;;;;;;6.20;81.60;;;;;;4987175;28;20004;-76
2023/02/10 10:58:40;;;;;;;;;;;6.10;82.00;;;;;;5002935;28;19956;-76
2023/02/10 11:01:06;;;;;;;;;;;5.90;80.60;;;;;;5002661;28;19953;-75
2023/02/10 11:03:32;;;;;;;;;;;6.10;81.50;;;;;;4992078;28;20013;-76
2023/02/10 11:06:00;;;;;;;;;;;6.30;82.80;;;;;;5001240;28;19912;-76
2023/02/10 11:08:28;;;;;;;;;;;6.20;82.00;;;;;;5002775;28;19956;-76
2023/02/10 11:10:55;;;;;;;;;;;6.20;81.20;;;;;;4998066;28;19924;-76
2023/02/10 11:13:26;;;;;;;;;;;6.20;81.40;;;;;;5003049;28;19913;-75
2023/02/10 11:16:05;;;;;;;;;;;6.40;81.00;;;;;;4993913;28;19940;-75
2023/02/10 11:18:30;;;;;;;;;;;6.60;80.50;;;;;;4997918;28;20540;-76
2023/02/10 11:20:58;;;;;;;;;;;6.60;84.90;;;;;;5002675;28;20022;-76
2023/02/10 11:23:26;;;;;;;;;;;6.40;82.00;;;;;;5002229;28;19971;-76
2023/02/10 11:25:56;;;;;;;;;;;6.40;81.30;;;;;;4991534;28;19914;-76
2023/02/10 11:28:24;;;;;;;;;;;6.50;81.70;;;;;;4990620;28;19944;-76
2023/02/10 11:30:55;;;;;;;;;;;6.50;81.00;;;;;;4999272;28;19975;-75
2023/02/10 11:33:22;;;;;;;;;;;6.50;82.80;;;;;;5000945;28;19917;-75
2023/02/10 11:35:49;;;;;;;;;;;6.60;81.00;;;;;;4984813;28;19952;-76
2023/02/10 11:38:19;;;;;;;;;;;6.60;80.40;;;;;;4986206;28;19910;-76
2023/02/10 11:40:58;;;;;;;;;;;6.60;81.60;;;;;;4997857;28;20004;-75
2023/02/10 11:43:27;;;;;;;;;;;6.80;80.80;;;;;;4997465;28;19944;-76
2023/02/10 11:45:55;;;;;;;;;;;6.80;81.50;;;;;;4984248;28;19996;-75
2023/02/10 11:48:21;;;;;;;;;;;6.80;83.00;;;;;;4988476;28;19921;-75
2023/02/10 11:50:47;;;;;;;;;;;6.80;79.80;;;;;;4989605;28;20402;-76
2023/02/10 11:53:26;;;;;;;;;;;6.80;78.00;;;;;;4998712;28;20001;-76
2023/02/10 11:55:57;;;;;;;;;;;6.80;76.10;;;;;;5001291;28;19914;-76
2023/02/10 12:01:24;;;;;;;;;;;6.80;79.70;;;;;;4999880;28;19929;-76
2023/02/10 12:03:52;;;;;;;;;;;6.80;78.30;;;;;;4988101;28;19968;-76
2023/02/10 12:06:24;;;;;;;;;;;6.80;80.70;;;;;;4987614;28;19910;-76
2023/02/10 12:09:01;;;;;;;;;;;6.80;75.40;;;;;;4988842;28;19921;-76
2023/02/10 12:11:33;;;;;;;;;;;6.80;76.40;;;;;;5004084;28;19983;-77
2023/02/10 12:14:05;;;;;;;;;;;6.80;73.70;;;;;;5002402;28;20478;-75
2023/02/10 12:16:30;;;;;;;;;;;6.80;75.10;;;;;;4987208;28;19914;-76
2023/02/10 12:18:56;;;;;;;;;;;6.80;73.70;;;;;;5002760;28;19916;-76
2023/02/10 12:21:40;;;;;;;;;;;6.90;76.10;;;;;;5006322;28;20032;-76
2023/02/10 12:24:15;;;;;;;;;;;7.00;77.30;;;;;;5005106;28;19921;-76
2023/02/10 12:26:46;;;;;;;;;;;6.90;70.40;;;;;;4993530;28;19913;-76
2023/02/10 12:29:29;;;;;;;;;;;7.00;70.90;;;;;;4988130;28;19910;-76
2023/02/10 12:32:14;;;;;;;;;;;7.00;70.30;;;;;;4992685;28;19920;-76
2023/02/10 12:34:54;;;;;;;;;;;7.00;67.80;;;;;;4999658;28;19936;-76
2023/02/10 12:37:39;;;;;;;;;;;7.00;66.30;;;;;;4986860;28;19914;-76
2023/02/10 12:40:04;;;;;;;;;;;7.10;67.10;;;;;;4993777;28;19910;-76
2023/02/10 12:42:48;;;;;;;;;;;7.10;67.70;;;;;;4995715;28;19964;-76
2023/02/10 12:45:19;;;;;;;;;;;7.10;72.50;;;;;;4993299;28;19917;-76
2023/02/10 12:47:58;;;;;;;;;;;7.20;76.70;;;;;;4992351;28;19916;-76
2023/02/10 12:50:26;;;;;;;;;;;7.30;79.80;;;;;;4990631;28;19917;-76
2023/02/10 12:53:30;;;;;;;;;;;7.30;76.80;;;;;;4986801;28;19917;-75
2023/02/10 12:56:01;;;;;;;;;;;7.30;79.00;;;;;;4979799;28;20008;-76
2023/02/10 12:58:46;;;;;;;;;;;7.40;80.20;;;;;;4974893;28;19910;-76
2023/02/10 13:01:18;;;;;;;;;;;7.40;78.50;;;;;;4983454;28;19926;-76
2023/02/10 13:03:45;;;;;;;;;;;7.40;78.10;;;;;;4999687;28;19909;-75
2023/02/10 13:06:11;;;;;;;;;;;7.30;80.10;;;;;;5005034;28;19913;-75
2023/02/10 13:08:43;;;;;;;;;;;7.60;81.00;;;;;;5003663;28;19962;-76
2023/02/10 13:11:31;;;;;;;;;;;7.50;80.10;;;;;;4990506;28;19913;-76
2023/02/10 13:13:58;;;;;;;;;;;7.50;81.40;;;;;;4989176;28;19917;-76
2023/02/10 13:16:28;;;;;;;;;;;7.40;77.40;;;;;;5003031;28;20028;-76
2023/02/10 13:19:06;;;;;;;;;;;7.30;77.30;;;;;;4990878;28;19964;-76
2023/02/10 13:21:35;;;;;;;;;;;7.40;82.10;;;;;;5004699;28;19967;-76
2023/02/10 13:24:08;;;;;;;;;;;7.50;80.30;;;;;;5002489;28;20289;-76
2023/02/10 13:26:42;;;;;;;;;;;7.50;81.20;;;;;;4992993;28;19913;-76
2023/02/10 13:29:17;;;;;;;;;;;7.50;83.00;;;;;;4993376;28;19912;-76
2023/02/10 13:31:54;;;;;;;;;;;7.60;81.40;;;;;;5001037;28;19996;-76
2023/02/10 13:34:28;;;;;;;;;;;7.60;80.50;;;;;;5000330;28;19940;-75
2023/02/10 13:36:56;;;;;;;;;;;7.50;80.20;;;;;;4992933;28;19917;-76
2023/02/10 13:39:28;;;;;;;;;;;7.60;81.90;;;;;;4997477;28;20016;-76
2023/02/10 13:42:06;;;;;;;;;;;7.60;82.40;;;;;;4993134;28;20004;-75
2023/02/10 13:44:33;;;;;;;;;;;7.70;81.50;;;;;;4998538;28;19909;-76
2023/02/10 13:47:07;;;;;;;;;;;7.70;80.20;;;;;;4993635;28;19917;-76
2023/02/10 13:49:33;;;;;;;;;;;7.70;80.70;;;;;;4985383;28;19920;-76
2023/02/10 13:52:00;;;;;;;;;;;7.60;80.70;;;;;;5000934;28;19913;-76
2023/02/10 13:54:27;;;;;;;;;;;7.70;82.20;;;;;;5000579;28;19972;-76
2023/02/10 13:56:54;;;;;;;;;;;7.70;80.90;;;;;;5004679;28;19960;-76
2023/02/10 13:59:19;;;;;;;;;;;7.60;81.50;;;;;;4992117;28;19939;-76
2023/02/10 14:01:45;;;;;;;;;;;7.60;80.20;;;;;;4994013;28;20505;-76
2023/02/10 14:04:16;;;;;;;;;;;7.70;77.80;;;;;;5001961;28;19909;-76
2023/02/10 14:06:42;;;;;;;;;;;7.50;78.50;;;;;;4993507;28;19909;-76
2023/02/10 14:09:22;;;;;;;;;;;7.50;78.60;;;;;;4984995;28;19910;-77
2023/02/10 14:11:52;;;;;;;;;;;7.60;80.70;;;;;;4997485;28;19913;-76
2023/02/10 14:14:20;;;;;;;;;;;7.50;80.90;;;;;;4997164;28;19921;-75
2023/02/10 14:16:48;;;;;;;;;;;7.40;82.50;;;;;;4998244;28;19909;-76
2023/02/10 14:19:34;;;;;;;;;;;7.50;82.60;;;;;;5003252;28;20321;-76
2023/02/10 14:22:00;;;;;;;;;;;7.40;81.80;;;;;;5000342;28;19983;-76
2023/02/10 14:24:31;;;;;;;;;;;7.50;81.60;;;;;;4984762;28;20519;-76
2023/02/10 14:27:00;;;;;;;;;;;8.00;81.30;;;;;;5000746;28;19917;-76
2023/02/10 14:29:25;;;;;;;;;;;7.90;81.50;;;;;;4984684;28;19917;-76
2023/02/10 14:31:54;;;;;;;;;;;7.80;81.70;;;;;;4990125;28;19913;-76
2023/02/10 14:34:20;;;;;;;;;;;7.80;81.70;;;;;;5002621;28;20459;-75